createdAt,value
2023-08-01T00:01:51.665Z,16.57
2023-08-01T00:06:52.957Z,16.58
2023-08-01T00:11:54.162Z,16.61
2023-08-01T00:16:55.396Z,16.63
2023-08-01T00:21:56.595Z,16.63
2023-08-01T00:26:57.774Z,16.64
2023-08-01T00:31:58.968Z,16.63
2023-08-01T00:37:00.165Z,16.64
2023-08-01T00:42:01.355Z,16.63
2023-08-01T00:47:02.564Z,16.63
2023-08-01T00:52:03.784Z,16.64
2023-08-01T00:57:05.041Z,16.62
2023-08-01T01:02:06.320Z,16.63
2023-08-01T01:07:07.617Z,16.63
2023-08-01T01:12:08.798Z,16.64
2023-08-01T01:17:10.111Z,16.66
2023-08-01T01:22:11.409Z,16.67
2023-08-01T01:27:12.589Z,16.68
2023-08-01T01:32:13.772Z,16.70
2023-08-01T01:37:14.972Z,16.70
2023-08-01T01:42:16.208Z,16.69
2023-08-01T01:47:17.381Z,16.68
2023-08-01T01:52:18.682Z,16.69
2023-08-01T01:57:19.864Z,16.62
2023-08-01T02:02:21.090Z,16.53
2023-08-01T02:07:22.272Z,16.53
2023-08-01T02:12:23.461Z,16.51
2023-08-01T02:17:24.694Z,16.49
2023-08-01T02:22:25.897Z,16.48
2023-08-01T02:27:27.100Z,16.49
2023-08-01T02:32:30.293Z,16.45
2023-08-01T02:37:32.513Z,16.40
2023-08-01T02:42:33.710Z,16.37
2023-08-01T02:47:34.912Z,16.36
2023-08-01T02:52:36.216Z,16.36
2023-08-01T02:57:37.390Z,16.37
2023-08-01T03:02:38.653Z,16.34
2023-08-01T03:07:39.870Z,16.28
2023-08-01T03:12:41.068Z,16.18
2023-08-01T03:17:42.355Z,16.11
2023-08-01T03:22:43.605Z,16.11
2023-08-01T03:27:44.813Z,16.11
2023-08-01T03:32:46.139Z,16.11
2023-08-01T03:37:47.347Z,16.08
2023-08-01T03:42:48.532Z,16.02
2023-08-01T03:47:49.765Z,15.91
2023-08-01T03:52:50.974Z,15.86
2023-08-01T03:57:52.189Z,15.80
2023-08-01T04:02:53.415Z,15.74
2023-08-01T04:07:55.837Z,15.66
2023-08-01T04:12:57.069Z,15.60
2023-08-01T04:17:58.330Z,15.54
2023-08-01T04:22:59.713Z,15.47
2023-08-01T04:28:00.925Z,15.43
2023-08-01T04:33:02.203Z,15.39
2023-08-01T04:38:03.535Z,15.36
2023-08-01T04:43:04.807Z,15.34
2023-08-01T04:48:06.038Z,15.31
2023-08-01T04:53:07.443Z,15.29
2023-08-01T04:58:10.770Z,15.29
2023-08-01T05:03:13.093Z,15.32
2023-08-01T05:08:14.881Z,15.30
2023-08-01T05:13:16.060Z,15.30
2023-08-01T05:18:17.239Z,15.36
2023-08-01T05:23:18.475Z,15.38
2023-08-01T05:28:19.702Z,15.43
2023-08-01T05:33:20.901Z,15.46
2023-08-01T05:38:22.098Z,15.47
2023-08-01T05:43:23.386Z,15.54
2023-08-01T05:48:24.559Z,15.59
2023-08-01T05:53:25.895Z,15.52
2023-08-01T05:58:28.956Z,15.52
2023-08-01T06:03:31.165Z,15.55
2023-08-01T06:08:32.432Z,15.57
2023-08-01T06:13:33.613Z,15.60
2023-08-01T06:18:34.817Z,15.56
2023-08-01T06:23:36.056Z,15.63
2023-08-01T06:28:37.326Z,15.70
2023-08-01T06:33:38.678Z,15.86
2023-08-01T06:38:39.850Z,15.91
2023-08-01T06:43:41.241Z,16.02
2023-08-01T06:48:42.431Z,16.20
2023-08-01T06:53:43.610Z,16.41
2023-08-01T06:58:44.800Z,16.40
2023-08-01T07:03:46.889Z,16.40
2023-08-01T07:08:48.271Z,16.50
2023-08-01T07:13:49.462Z,16.61
2023-08-01T07:18:51.709Z,16.66
2023-08-01T07:23:52.868Z,16.82
2023-08-01T07:28:54.031Z,16.76
2023-08-01T07:33:55.244Z,16.77
2023-08-01T07:38:57.320Z,16.91
2023-08-01T07:43:58.641Z,16.97
2023-08-01T07:49:00.575Z,17.25
2023-08-01T07:54:01.764Z,17.39
2023-08-01T07:59:02.977Z,17.27
2023-08-01T08:04:04.203Z,17.21
2023-08-01T08:09:05.419Z,17.25
2023-08-01T08:14:06.610Z,17.46
2023-08-01T08:19:07.822Z,17.73
2023-08-01T08:24:09.033Z,17.71
2023-08-01T08:29:10.243Z,17.69
2023-08-01T08:34:11.411Z,17.91
2023-08-01T08:39:12.733Z,18.12
2023-08-01T08:44:13.896Z,18.12
2023-08-01T08:49:16.824Z,17.75
2023-08-01T08:54:18.140Z,17.20
2023-08-01T08:59:19.321Z,17.44
2023-08-01T09:04:20.635Z,18.18
2023-08-01T09:09:23.693Z,18.39
2023-08-01T09:14:25.028Z,18.56
2023-08-01T09:19:28.433Z,18.16
2023-08-01T09:24:29.629Z,18.47
2023-08-01T09:29:32.568Z,19.45
2023-08-01T09:34:33.767Z,19.51
2023-08-01T09:39:34.996Z,18.62
2023-08-01T09:44:36.201Z,17.96
2023-08-01T09:49:38.374Z,17.66
2023-08-01T09:54:39.550Z,17.84
2023-08-01T09:59:40.790Z,18.46
2023-08-01T10:04:42.012Z,19.91
2023-08-01T10:09:43.185Z,20.48
2023-08-01T10:14:44.369Z,21.32
2023-08-01T10:19:45.552Z,21.74
2023-08-01T10:24:46.724Z,22.13
2023-08-01T10:29:48.049Z,22.16
2023-08-01T10:34:49.217Z,21.35
2023-08-01T10:39:50.387Z,21.11
2023-08-01T10:44:51.637Z,20.84
2023-08-01T10:49:52.818Z,19.76
2023-08-01T10:54:54.088Z,19.67
2023-08-01T10:59:55.261Z,19.76
2023-08-01T11:04:56.451Z,20.21
2023-08-01T11:09:57.630Z,20.58
2023-08-01T11:14:58.809Z,21.57
2023-08-01T11:19:59.979Z,20.62
2023-08-01T11:25:01.150Z,20.64
2023-08-01T11:30:02.401Z,20.71
2023-08-01T11:35:03.607Z,21.87
2023-08-01T11:40:04.807Z,22.64
2023-08-01T11:45:06.006Z,23.63
2023-08-01T11:50:07.297Z,24.13
2023-08-01T11:55:08.514Z,23.59
2023-08-01T12:00:10.198Z,24.18
2023-08-01T12:05:11.459Z,24.17
2023-08-01T12:10:12.661Z,23.67
2023-08-01T12:15:13.857Z,23.12
2023-08-01T12:20:15.148Z,21.39
2023-08-01T12:25:16.336Z,20.41
2023-08-01T12:30:17.538Z,20.41
2023-08-01T12:35:18.805Z,20.67
2023-08-01T12:40:20.055Z,20.42
2023-08-01T12:45:21.262Z,20.36
2023-08-01T12:50:22.513Z,18.96
2023-08-01T12:55:23.690Z,17.72
2023-08-01T13:00:24.883Z,17.63
2023-08-01T13:05:26.085Z,17.60
2023-08-01T13:10:27.418Z,17.28
2023-08-01T13:15:28.609Z,17.50
2023-08-01T13:20:30.940Z,17.69
2023-08-01T13:25:33.350Z,17.91
2023-08-01T13:30:34.716Z,18.01
2023-08-01T13:35:35.965Z,17.92
2023-08-01T13:40:37.218Z,17.93
2023-08-01T13:45:38.425Z,17.67
2023-08-01T13:50:39.642Z,17.61
2023-08-01T13:55:41.038Z,18.20
2023-08-01T14:00:42.394Z,18.48
2023-08-01T14:05:43.575Z,18.62
2023-08-01T14:10:44.759Z,18.54
2023-08-01T14:15:46.011Z,18.50
2023-08-01T14:20:47.212Z,18.65
2023-08-01T14:25:48.416Z,18.82
2023-08-01T14:30:49.604Z,18.72
2023-08-01T14:35:50.892Z,18.80
2023-08-01T14:41:06.103Z,19.02
2023-08-01T14:46:12.870Z,19.26
2023-08-01T14:51:14.197Z,19.39
2023-08-01T14:56:15.361Z,19.34
2023-08-01T15:01:16.626Z,18.95
2023-08-01T15:06:17.899Z,18.96
2023-08-01T15:11:19.105Z,19.48
2023-08-01T15:16:20.379Z,19.76
2023-08-01T15:21:21.737Z,20.15
2023-08-01T15:26:22.940Z,19.97
2023-08-01T15:31:24.202Z,19.46
2023-08-01T15:36:25.682Z,19.06
2023-08-01T15:41:26.854Z,18.90
2023-08-01T15:46:28.086Z,18.69
2023-08-01T15:51:29.308Z,18.43
2023-08-01T15:56:32.794Z,18.30
2023-08-01T16:01:34.411Z,18.07
2023-08-01T16:06:35.741Z,17.84
2023-08-01T16:11:36.920Z,17.87
2023-08-01T16:16:38.085Z,17.94
2023-08-01T16:21:39.307Z,18.13
2023-08-01T16:26:40.604Z,18.33
2023-08-01T16:31:41.804Z,18.39
2023-08-01T16:36:43.383Z,18.41
2023-08-01T16:41:44.818Z,18.52
2023-08-01T16:46:46.442Z,18.83
2023-08-01T16:51:47.611Z,18.76
2023-08-01T16:56:49.119Z,18.72
2023-08-01T17:01:50.368Z,18.75
2023-08-01T17:06:51.608Z,18.69
2023-08-01T17:11:53.100Z,18.65
2023-08-01T17:16:54.419Z,18.68
2023-08-01T17:21:55.717Z,18.69
2023-08-01T17:26:56.907Z,18.78
2023-08-01T17:31:58.082Z,18.68
2023-08-01T17:36:59.261Z,18.56
2023-08-01T17:42:01.537Z,18.40
2023-08-01T17:47:02.720Z,18.15
2023-08-01T17:52:03.915Z,17.88
2023-08-01T17:57:05.325Z,17.74
2023-08-01T18:02:07.813Z,17.69
2023-08-01T18:07:10.325Z,17.64
2023-08-01T18:12:11.526Z,17.65
2023-08-01T18:17:12.710Z,17.61
2023-08-01T18:22:13.899Z,17.59
2023-08-01T18:27:15.171Z,17.56
2023-08-01T18:32:16.347Z,17.56
2023-08-01T18:37:17.537Z,17.50
2023-08-01T18:42:18.734Z,17.48
2023-08-01T18:47:19.954Z,17.45
2023-08-01T18:52:21.143Z,17.47
2023-08-01T18:57:22.334Z,17.39
2023-08-01T19:02:23.601Z,17.27
2023-08-01T19:07:24.821Z,17.21
2023-08-01T19:12:26.016Z,17.13
2023-08-01T19:17:27.222Z,17.06
2023-08-01T19:22:28.417Z,17.03
2023-08-01T19:27:30.810Z,17.00
2023-08-01T19:32:32.039Z,16.97
2023-08-01T19:37:33.218Z,16.92
2023-08-01T19:42:34.421Z,16.83
2023-08-01T19:47:35.698Z,16.75
2023-08-01T19:52:36.891Z,16.69
2023-08-01T19:57:38.083Z,16.65
2023-08-01T20:02:40.427Z,16.63
2023-08-01T20:07:41.944Z,16.63
2023-08-01T20:12:43.130Z,16.60
2023-08-01T20:17:44.461Z,16.58
2023-08-01T20:22:46.138Z,16.55
2023-08-01T20:27:47.450Z,16.54
2023-08-01T20:32:48.707Z,16.49
2023-08-01T20:37:49.982Z,16.39
2023-08-01T20:42:51.164Z,16.33
2023-08-01T20:47:52.433Z,16.28
2023-08-01T20:52:53.632Z,16.20
2023-08-01T20:57:54.839Z,16.12
2023-08-01T21:02:56.082Z,16.04
2023-08-01T21:07:57.357Z,15.99
2023-08-01T21:12:58.635Z,15.95
2023-08-01T21:17:59.918Z,15.95
2023-08-01T21:23:01.176Z,15.96
2023-08-01T21:28:02.371Z,15.97
2023-08-01T21:33:03.623Z,15.98
2023-08-01T21:38:04.893Z,16.00
2023-08-01T21:43:06.077Z,15.97
2023-08-01T21:48:07.284Z,15.98
2023-08-01T21:53:08.507Z,15.96
2023-08-01T21:58:09.687Z,15.97
2023-08-01T22:03:11.120Z,15.94
2023-08-01T22:08:12.582Z,15.92
2023-08-01T22:13:13.778Z,15.90
2023-08-01T22:18:24.431Z,15.87
2023-08-01T22:23:25.713Z,15.81
2023-08-01T22:28:26.885Z,15.74
2023-08-01T22:33:28.075Z,15.68
2023-08-01T22:38:29.279Z,15.62
2023-08-01T22:43:30.484Z,15.63
2023-08-01T22:48:31.718Z,15.63
2023-08-01T22:53:32.944Z,15.61
2023-08-01T22:58:34.339Z,15.59
2023-08-01T23:03:35.556Z,15.57
2023-08-01T23:08:36.778Z,15.56
2023-08-01T23:13:37.986Z,15.57
2023-08-01T23:18:39.182Z,15.57
2023-08-01T23:23:40.377Z,15.56
2023-08-01T23:28:41.649Z,15.52
2023-08-01T23:33:42.877Z,15.56
2023-08-01T23:38:44.071Z,15.58
2023-08-01T23:43:45.342Z,15.62
2023-08-01T23:48:46.508Z,15.64
2023-08-01T23:53:47.719Z,15.64
2023-08-01T23:58:49.012Z,15.55
